JAL189 RJTT-RJNK
Flight info
| Callsign | JAL189 |
|---|---|
| Flight time | 0h 39m |
| Altitude | 24000 |
| Route | BEKLA Y884 KMC |
| Aircraft | MD11/H-Q/LB1D1 |
Departure
| Time | 2026-05-05 07:52 |
|---|---|
| Airport | Tokyo Haneda International Airport (RJTT) |
Arrival
| Time | 2026-05-05 08:31 |
|---|---|
| Airport | Komatsu Airport / JASDF Komatsu Air Base (RJNK) |
| Time | Latitude | Longitude | Altitude | Speed | Heading |
|---|---|---|---|---|---|
| 2026-05-05 07:36 | 35.55025 | 139.78191 | 31 ft | 0 kts | 60° |
| 2026-05-05 07:42 | 35.55023 | 139.78187 | 31 ft | 3 kts | 60° |
| 2026-05-05 07:42 | 35.55009 | 139.78158 | 29 ft | 4 kts | 60° |
| 2026-05-05 07:43 | 35.54995 | 139.78130 | 28 ft | 4 kts | 60° |
| 2026-05-05 07:43 | 35.54982 | 139.78101 | 28 ft | 4 kts | 60° |
| 2026-05-05 07:43 | 35.54970 | 139.78075 | 28 ft | 2 kts | 60° |
| 2026-05-05 07:43 | 35.54957 | 139.78054 | 28 ft | 4 kts | 27° |
| 2026-05-05 07:44 | 35.54938 | 139.78048 | 28 ft | 4 kts | 345° |
| 2026-05-05 07:44 | 35.54916 | 139.78058 | 28 ft | 2 kts | 330° |
| 2026-05-05 07:44 | 35.54915 | 139.78058 | 28 ft | 3 kts | 330° |
| 2026-05-05 07:48 | 35.54916 | 139.78057 | 29 ft | 1 kts | 330° |
| 2026-05-05 07:48 | 35.54931 | 139.78047 | 29 ft | 8 kts | 330° |
| 2026-05-05 07:48 | 35.55036 | 139.77973 | 30 ft | 23 kts | 330° |
| 2026-05-05 07:48 | 35.55178 | 139.77871 | 31 ft | 24 kts | 329° |
| 2026-05-05 07:49 | 35.55321 | 139.77768 | 29 ft | 24 kts | 329° |
| 2026-05-05 07:49 | 35.55465 | 139.77663 | 29 ft | 24 kts | 329° |
| 2026-05-05 07:49 | 35.55607 | 139.77563 | 29 ft | 23 kts | 333° |
| 2026-05-05 07:49 | 35.55744 | 139.77470 | 29 ft | 22 kts | 329° |
| 2026-05-05 07:50 | 35.55848 | 139.77379 | 30 ft | 10 kts | 304° |
| 2026-05-05 07:50 | 35.55853 | 139.77346 | 30 ft | 1 kts | 260° |
| 2026-05-05 07:50 | 35.55841 | 139.77333 | 29 ft | 7 kts | 217° |
| 2026-05-05 07:50 | 35.55775 | 139.77281 | 28 ft | 12 kts | 214° |
| 2026-05-05 07:51 | 35.55727 | 139.77241 | 28 ft | 3 kts | 214° |
| 2026-05-05 07:51 | 35.55717 | 139.77233 | 29 ft | 1 kts | 214° |
| 2026-05-05 07:51 | 35.55707 | 139.77224 | 30 ft | 2 kts | 214° |
| 2026-05-05 07:51 | 35.55693 | 139.77212 | 30 ft | 10 kts | 214° |
| 2026-05-05 07:52 | 35.55545 | 139.77219 | 30 ft | 27 kts | 148° |
| 2026-05-05 07:52 | 35.55309 | 139.77397 | 29 ft | 82 kts | 149° |
| 2026-05-05 07:52 | 35.54510 | 139.77986 | 176 ft | 167 kts | 150° |
| 2026-05-05 07:52 | 35.53566 | 139.78750 | 1415 ft | 160 kts | 149° |
| 2026-05-05 07:53 | 35.52620 | 139.79542 | 2680 ft | 171 kts | 149° |
| 2026-05-05 07:53 | 35.51619 | 139.80345 | 3893 ft | 181 kts | 150° |
| 2026-05-05 07:53 | 35.50446 | 139.81173 | 4609 ft | 216 kts | 154° |
| 2026-05-05 07:53 | 35.48983 | 139.82132 | 4953 ft | 253 kts | 153° |
| 2026-05-05 07:54 | 35.47397 | 139.83190 | 5892 ft | 265 kts | 153° |
| 2026-05-05 07:54 | 35.45858 | 139.84506 | 6831 ft | 278 kts | 137° |
| 2026-05-05 07:54 | 35.44786 | 139.86518 | 7781 ft | 290 kts | 110° |
| 2026-05-05 07:54 | 35.44637 | 139.88977 | 8849 ft | 292 kts | 77° |
| 2026-05-05 07:55 | 35.45329 | 139.91319 | 9895 ft | 295 kts | 60° |
| 2026-05-05 07:55 | 35.46352 | 139.93570 | 10532 ft | 316 kts | 54° |
| 2026-05-05 07:55 | 35.47777 | 139.95816 | 10665 ft | 350 kts | 42° |
| 2026-05-05 07:55 | 35.49783 | 139.97605 | 11255 ft | 361 kts | 23° |
| 2026-05-05 07:56 | 35.52170 | 139.98530 | 12291 ft | 361 kts | 5° |
| 2026-05-05 07:56 | 35.54681 | 139.98443 | 13300 ft | 362 kts | 348° |
| 2026-05-05 07:56 | 35.57113 | 139.97725 | 14291 ft | 365 kts | 341° |
| 2026-05-05 07:56 | 35.59559 | 139.96799 | 15186 ft | 370 kts | 341° |
| 2026-05-05 07:57 | 35.62114 | 139.96254 | 16046 ft | 378 kts | 353° |
| 2026-05-05 07:57 | 35.64765 | 139.96124 | 16939 ft | 384 kts | 354° |
| 2026-05-05 07:57 | 35.67427 | 139.95778 | 17850 ft | 385 kts | 345° |
| 2026-05-05 07:57 | 35.69954 | 139.94737 | 18748 ft | 384 kts | 330° |
| 2026-05-05 07:58 | 35.72154 | 139.92875 | 19554 ft | 384 kts | 314° |
| 2026-05-05 07:58 | 35.73833 | 139.90333 | 20364 ft | 384 kts | 299° |
| 2026-05-05 07:58 | 35.74896 | 139.87330 | 21192 ft | 384 kts | 285° |
| 2026-05-05 07:58 | 35.75445 | 139.84108 | 22036 ft | 386 kts | 277° |
| 2026-05-05 07:59 | 35.75786 | 139.80853 | 22743 ft | 392 kts | 275° |
| 2026-05-05 07:59 | 35.76092 | 139.77489 | 23151 ft | 394 kts | 275° |
| 2026-05-05 07:59 | 35.76427 | 139.74148 | 23544 ft | 392 kts | 277° |
| 2026-05-05 07:59 | 35.76986 | 139.70867 | 23922 ft | 392 kts | 282° |
| 2026-05-05 08:00 | 35.77713 | 139.67617 | 24123 ft | 393 kts | 283° |
| 2026-05-05 08:00 | 35.78325 | 139.64370 | 24166 ft | 381 kts | 277° |
| 2026-05-05 08:00 | 35.78667 | 139.61261 | 24182 ft | 362 kts | 274° |
| 2026-05-05 08:00 | 35.78937 | 139.58097 | 24204 ft | 382 kts | 275° |
| 2026-05-05 08:01 | 35.79228 | 139.54743 | 24193 ft | 403 kts | 275° |
| 2026-05-05 08:01 | 35.79560 | 139.51227 | 24214 ft | 423 kts | 275° |
| 2026-05-05 08:01 | 35.79925 | 139.47642 | 24210 ft | 428 kts | 276° |
| 2026-05-05 08:01 | 35.80317 | 139.43977 | 24216 ft | 426 kts | 276° |
| 2026-05-05 08:02 | 35.80709 | 139.40402 | 24219 ft | 425 kts | 276° |
| 2026-05-05 08:02 | 35.81108 | 139.36789 | 24216 ft | 425 kts | 276° |
| 2026-05-05 08:02 | 35.81508 | 139.33175 | 24223 ft | 425 kts | 276° |
| 2026-05-05 08:02 | 35.81906 | 139.29558 | 24227 ft | 425 kts | 276° |
| 2026-05-05 08:03 | 35.82302 | 139.25949 | 24226 ft | 426 kts | 276° |
| 2026-05-05 08:03 | 35.82698 | 139.22334 | 24249 ft | 426 kts | 276° |
| 2026-05-05 08:03 | 35.83135 | 139.18712 | 24217 ft | 431 kts | 280° |
| 2026-05-05 08:03 | 35.83839 | 139.15098 | 24213 ft | 434 kts | 284° |
| 2026-05-05 08:04 | 35.84709 | 139.11567 | 24212 ft | 436 kts | 286° |
| 2026-05-05 08:04 | 35.85658 | 139.08019 | 24198 ft | 435 kts | 287° |
| 2026-05-05 08:04 | 35.86621 | 139.04488 | 24188 ft | 434 kts | 287° |
| 2026-05-05 08:04 | 35.87575 | 139.00962 | 24190 ft | 433 kts | 286° |
| 2026-05-05 08:05 | 35.88519 | 138.97428 | 24182 ft | 432 kts | 286° |
| 2026-05-05 08:05 | 35.89448 | 138.93909 | 24186 ft | 431 kts | 286° |
| 2026-05-05 08:05 | 35.90371 | 138.90382 | 24188 ft | 433 kts | 286° |
| 2026-05-05 08:05 | 35.91294 | 138.86838 | 24183 ft | 434 kts | 286° |
| 2026-05-05 08:06 | 35.92215 | 138.83299 | 24183 ft | 434 kts | 286° |
| 2026-05-05 08:06 | 35.93135 | 138.79753 | 24175 ft | 433 kts | 286° |
| 2026-05-05 08:06 | 35.94050 | 138.76217 | 24176 ft | 432 kts | 286° |
| 2026-05-05 08:06 | 35.94963 | 138.72690 | 24171 ft | 431 kts | 286° |
| 2026-05-05 08:07 | 35.95872 | 138.69167 | 24176 ft | 430 kts | 286° |
| 2026-05-05 08:07 | 35.96780 | 138.65652 | 24173 ft | 429 kts | 286° |
| 2026-05-05 08:07 | 35.97685 | 138.62141 | 24177 ft | 430 kts | 286° |
| 2026-05-05 08:07 | 35.98580 | 138.58662 | 24174 ft | 429 kts | 286° |
| 2026-05-05 08:08 | 35.99484 | 138.55146 | 24167 ft | 429 kts | 286° |
| 2026-05-05 08:08 | 36.00382 | 138.51644 | 24167 ft | 428 kts | 286° |
| 2026-05-05 08:08 | 36.01279 | 138.48143 | 24166 ft | 427 kts | 286° |
| 2026-05-05 08:08 | 36.02174 | 138.44650 | 24163 ft | 426 kts | 286° |
| 2026-05-05 08:09 | 36.03065 | 138.41165 | 24160 ft | 423 kts | 285° |
| 2026-05-05 08:09 | 36.03947 | 138.37715 | 24154 ft | 421 kts | 285° |
| 2026-05-05 08:09 | 36.04828 | 138.34254 | 24165 ft | 422 kts | 285° |
| 2026-05-05 08:09 | 36.05698 | 138.30832 | 24151 ft | 422 kts | 285° |
| 2026-05-05 08:10 | 36.06577 | 138.27374 | 24139 ft | 421 kts | 285° |
| 2026-05-05 08:10 | 36.07452 | 138.23926 | 24138 ft | 420 kts | 285° |
| 2026-05-05 08:10 | 36.08322 | 138.20486 | 24124 ft | 418 kts | 285° |
| 2026-05-05 08:10 | 36.09177 | 138.17052 | 24128 ft | 417 kts | 285° |
| 2026-05-05 08:11 | 36.10028 | 138.13633 | 24121 ft | 415 kts | 285° |
| 2026-05-05 08:11 | 36.10876 | 138.10234 | 24114 ft | 413 kts | 285° |
| 2026-05-05 08:11 | 36.11729 | 138.06830 | 24138 ft | 414 kts | 285° |
| 2026-05-05 08:11 | 36.12572 | 138.03469 | 24129 ft | 415 kts | 286° |
| 2026-05-05 08:12 | 36.13425 | 138.00072 | 24124 ft | 414 kts | 285° |
| 2026-05-05 08:12 | 36.14276 | 137.96686 | 24128 ft | 412 kts | 285° |
| 2026-05-05 08:12 | 36.15124 | 137.93303 | 24131 ft | 411 kts | 285° |
| 2026-05-05 08:12 | 36.15933 | 137.89908 | 24128 ft | 410 kts | 283° |
| 2026-05-05 08:13 | 36.16592 | 137.86479 | 24124 ft | 409 kts | 281° |
| 2026-05-05 08:13 | 36.17170 | 137.83030 | 24128 ft | 409 kts | 280° |
| 2026-05-05 08:13 | 36.17721 | 137.79568 | 24107 ft | 411 kts | 280° |
| 2026-05-05 08:13 | 36.18271 | 137.76095 | 23838 ft | 410 kts | 280° |
| 2026-05-05 08:14 | 36.18817 | 137.72662 | 23412 ft | 411 kts | 280° |
| 2026-05-05 08:14 | 36.19371 | 137.69198 | 22805 ft | 409 kts | 280° |
| 2026-05-05 08:14 | 36.19924 | 137.65759 | 22220 ft | 405 kts | 281° |
| 2026-05-05 08:14 | 36.20472 | 137.62360 | 21660 ft | 402 kts | 281° |
| 2026-05-05 08:15 | 36.21020 | 137.58971 | 21262 ft | 399 kts | 280° |
| 2026-05-05 08:15 | 36.21564 | 137.55600 | 20869 ft | 398 kts | 280° |
| 2026-05-05 08:15 | 36.22105 | 137.52245 | 20504 ft | 396 kts | 280° |
| 2026-05-05 08:15 | 36.22642 | 137.48906 | 20249 ft | 394 kts | 281° |
| 2026-05-05 08:16 | 36.23176 | 137.45575 | 20187 ft | 394 kts | 281° |
| 2026-05-05 08:16 | 36.23710 | 137.42242 | 20175 ft | 394 kts | 281° |
| 2026-05-05 08:16 | 36.24242 | 137.38915 | 20173 ft | 394 kts | 281° |
| 2026-05-05 08:16 | 36.24775 | 137.35579 | 20180 ft | 395 kts | 280° |
| 2026-05-05 08:17 | 36.25300 | 137.32284 | 20168 ft | 395 kts | 280° |
| 2026-05-05 08:17 | 36.25831 | 137.28945 | 20169 ft | 395 kts | 280° |
| 2026-05-05 08:17 | 36.26452 | 137.25634 | 20092 ft | 391 kts | 285° |
| 2026-05-05 08:17 | 36.27515 | 137.22587 | 20104 ft | 392 kts | 299° |
| 2026-05-05 08:18 | 36.29130 | 137.19883 | 19232 ft | 393 kts | 313° |
| 2026-05-05 08:18 | 36.31293 | 137.17796 | 18013 ft | 395 kts | 325° |
| 2026-05-05 08:18 | 36.33656 | 137.16100 | 16869 ft | 390 kts | 329° |
| 2026-05-05 08:18 | 36.36031 | 137.14525 | 15780 ft | 384 kts | 329° |
| 2026-05-05 08:19 | 36.38359 | 137.12967 | 14763 ft | 377 kts | 328° |
| 2026-05-05 08:19 | 36.40634 | 137.11398 | 13751 ft | 371 kts | 328° |
| 2026-05-05 08:19 | 36.42867 | 137.09815 | 12650 ft | 366 kts | 327° |
| 2026-05-05 08:19 | 36.45043 | 137.08241 | 12151 ft | 363 kts | 327° |
| 2026-05-05 08:20 | 36.47220 | 137.06646 | 11776 ft | 355 kts | 327° |
| 2026-05-05 08:20 | 36.49290 | 137.05130 | 11411 ft | 335 kts | 327° |
| 2026-05-05 08:20 | 36.51223 | 137.03707 | 11094 ft | 318 kts | 327° |
| 2026-05-05 08:20 | 36.53068 | 137.02344 | 10809 ft | 301 kts | 327° |
| 2026-05-05 08:21 | 36.54831 | 137.01037 | 10528 ft | 288 kts | 327° |
| 2026-05-05 08:21 | 36.56527 | 136.99777 | 10172 ft | 284 kts | 326° |
| 2026-05-05 08:21 | 36.58234 | 136.98508 | 9678 ft | 286 kts | 327° |
| 2026-05-05 08:21 | 36.59936 | 136.97243 | 9186 ft | 283 kts | 326° |
| 2026-05-05 08:22 | 36.61516 | 136.95818 | 8746 ft | 280 kts | 313° |
| 2026-05-05 08:22 | 36.62602 | 136.93850 | 8343 ft | 275 kts | 288° |
| 2026-05-05 08:22 | 36.62870 | 136.91535 | 7959 ft | 269 kts | 261° |
| 2026-05-05 08:22 | 36.62313 | 136.89343 | 7575 ft | 265 kts | 241° |
| 2026-05-05 08:23 | 36.61411 | 136.87335 | 7214 ft | 265 kts | 237° |
| 2026-05-05 08:23 | 36.60456 | 136.85381 | 6820 ft | 263 kts | 236° |
| 2026-05-05 08:23 | 36.59517 | 136.83470 | 6450 ft | 261 kts | 236° |
| 2026-05-05 08:23 | 36.58565 | 136.81520 | 6089 ft | 260 kts | 235° |
| 2026-05-05 08:24 | 36.57639 | 136.79619 | 5752 ft | 260 kts | 236° |
| 2026-05-05 08:24 | 36.56712 | 136.77700 | 5423 ft | 259 kts | 237° |
| 2026-05-05 08:24 | 36.55786 | 136.75778 | 5110 ft | 258 kts | 237° |
| 2026-05-05 08:24 | 36.54869 | 136.73871 | 5013 ft | 257 kts | 237° |
| 2026-05-05 08:25 | 36.53958 | 136.71950 | 4999 ft | 258 kts | 239° |
| 2026-05-05 08:25 | 36.53216 | 136.69944 | 4949 ft | 247 kts | 245° |
| 2026-05-05 08:25 | 36.52618 | 136.68042 | 4452 ft | 226 kts | 247° |
| 2026-05-05 08:25 | 36.52088 | 136.66291 | 3991 ft | 207 kts | 247° |
| 2026-05-05 08:26 | 36.51605 | 136.64687 | 3656 ft | 188 kts | 248° |
| 2026-05-05 08:26 | 36.51168 | 136.63238 | 3420 ft | 172 kts | 248° |
| 2026-05-05 08:26 | 36.50761 | 136.61893 | 3233 ft | 156 kts | 249° |
| 2026-05-05 08:26 | 36.50386 | 136.60658 | 3128 ft | 152 kts | 247° |
| 2026-05-05 08:27 | 36.50055 | 136.59890 | 3047 ft | 151 kts | 236° |
| 2026-05-05 08:27 | 36.49474 | 136.58818 | 2837 ft | 149 kts | 235° |
| 2026-05-05 08:27 | 36.48894 | 136.57756 | 2602 ft | 149 kts | 236° |
| 2026-05-05 08:27 | 36.48313 | 136.56697 | 2386 ft | 148 kts | 236° |
| 2026-05-05 08:28 | 36.47540 | 136.55301 | 2102 ft | 148 kts | 236° |
| 2026-05-05 08:28 | 36.47144 | 136.54589 | 1979 ft | 148 kts | 236° |
| 2026-05-05 08:28 | 36.46560 | 136.53541 | 1798 ft | 147 kts | 236° |
| 2026-05-05 08:28 | 36.45977 | 136.52496 | 1733 ft | 147 kts | 236° |
| 2026-05-05 08:29 | 36.45393 | 136.51451 | 1689 ft | 147 kts | 237° |
| 2026-05-05 08:29 | 36.44816 | 136.50421 | 1688 ft | 147 kts | 236° |
| 2026-05-05 08:29 | 36.44227 | 136.49367 | 1450 ft | 147 kts | 237° |
| 2026-05-05 08:30 | 36.43076 | 136.47316 | 997 ft | 146 kts | 237° |
| 2026-05-05 08:30 | 36.42473 | 136.46309 | 895 ft | 146 kts | 234° |
| 2026-05-05 08:30 | 36.41886 | 136.45280 | 662 ft | 145 kts | 237° |
| 2026-05-05 08:30 | 36.41316 | 136.44246 | 499 ft | 147 kts | 238° |
| 2026-05-05 08:31 | 36.40762 | 136.43203 | 293 ft | 144 kts | 238° |
| 2026-05-05 08:31 | 36.40185 | 136.42181 | 114 ft | 146 kts | 238° |
| 2026-05-05 08:31 | 36.39632 | 136.41174 | 41 ft | 128 kts | 237° |
| 2026-05-05 08:31 | 36.39305 | 136.40585 | 39 ft | 40 kts | 243° |
| 2026-05-05 08:32 | 36.39311 | 136.40483 | 36 ft | 4 kts | 324° |
| 2026-05-05 08:32 | 36.39340 | 136.40457 | 36 ft | 6 kts | 324° |
| 2026-05-05 08:32 | 36.39374 | 136.40427 | 36 ft | 6 kts | 324° |
| 2026-05-05 08:32 | 36.39404 | 136.40404 | 36 ft | 1 kts | 338° |
| 2026-05-05 08:33 | 36.39417 | 136.40401 | 36 ft | 2 kts | 355° |
| 2026-05-05 08:33 | 36.39466 | 136.40423 | 35 ft | 11 kts | 34° |
| 2026-05-05 08:33 | 36.39535 | 136.40529 | 37 ft | 22 kts | 55° |
| 2026-05-05 08:33 | 36.39646 | 136.40727 | 38 ft | 34 kts | 55° |
| 2026-05-05 08:34 | 36.39800 | 136.41004 | 34 ft | 41 kts | 56° |
| 2026-05-05 08:34 | 36.39949 | 136.41273 | 33 ft | 29 kts | 55° |
| 2026-05-05 08:34 | 36.40038 | 136.41437 | 32 ft | 20 kts | 55° |
| 2026-05-05 08:34 | 36.40080 | 136.41485 | 36 ft | 2 kts | 11° |
| 2026-05-05 08:35 | 36.40092 | 136.41481 | 35 ft | 1 kts | 341° |
| 2026-05-05 08:35 | 36.40128 | 136.41454 | 34 ft | 8 kts | 329° |
| 2026-05-05 08:35 | 36.40142 | 136.41444 | 33 ft | 0 kts | 327° |